sensor_id;sensor_type;location;lat;lon;timestamp;pressure;altitude;pressure_sealevel;temperature;humidity
3102;BME280;1561;42.666;23.392;2022-09-17T00:00:54;94423.56;;;17.69;100.00
3102;BME280;1561;42.666;23.392;2022-09-17T00:03:27;94398.75;;;17.75;100.00
3102;BME280;1561;42.666;23.392;2022-09-17T00:05:58;94414.88;;;17.77;100.00
3102;BME280;1561;42.666;23.392;2022-09-17T00:08:27;94408.16;;;17.82;100.00
3102;BME280;1561;42.666;23.392;2022-09-17T00:10:57;94385.44;;;17.78;100.00
3102;BME280;1561;42.666;23.392;2022-09-17T00:13:28;94415.13;;;18.09;100.00
3102;BME280;1561;42.666;23.392;2022-09-17T00:16:03;94366.47;;;17.85;100.00
3102;BME280;1561;42.666;23.392;2022-09-17T00:18:33;94377.75;;;17.84;100.00
3102;BME280;1561;42.666;23.392;2022-09-17T00:21:06;94373.72;;;18.03;100.00
3102;BME280;1561;42.666;23.392;2022-09-17T00:23:47;94393.13;;;17.92;100.00
3102;BME280;1561;42.666;23.392;2022-09-17T00:26:20;94382.78;;;17.92;100.00
3102;BME280;1561;42.666;23.392;2022-09-17T00:28:53;94348.91;;;17.81;100.00
3102;BME280;1561;42.666;23.392;2022-09-17T00:31:23;94376.78;;;17.85;100.00
3102;BME280;1561;42.666;23.392;2022-09-17T00:33:57;94377.34;;;17.81;100.00
3102;BME280;1561;42.666;23.392;2022-09-17T00:36:24;94371.88;;;17.69;100.00
3102;BME280;1561;42.666;23.392;2022-09-17T00:38:55;94376.00;;;17.64;100.00
3102;BME280;1561;42.666;23.392;2022-09-17T00:41:27;94385.78;;;17.68;100.00
3102;BME280;1561;42.666;23.392;2022-09-17T00:44:01;94373.81;;;17.61;100.00
3102;BME280;1561;42.666;23.392;2022-09-17T00:46:53;94398.34;;;17.50;100.00
3102;BME280;1561;42.666;23.392;2022-09-17T00:49:31;94402.28;;;17.67;100.00
3102;BME280;1561;42.666;23.392;2022-09-17T00:52:03;94395.94;;;17.49;100.00
3102;BME280;1561;42.666;23.392;2022-09-17T00:54:41;94399.19;;;17.57;100.00
3102;BME280;1561;42.666;23.392;2022-09-17T00:57:11;94394.13;;;17.70;100.00
3102;BME280;1561;42.666;23.392;2022-09-17T00:59:47;94402.66;;;17.43;100.00
3102;BME280;1561;42.666;23.392;2022-09-17T01:02:20;94415.44;;;17.51;100.00
3102;BME280;1561;42.666;23.392;2022-09-17T01:04:54;94437.63;;;17.46;100.00
3102;BME280;1561;42.666;23.392;2022-09-17T01:07:38;94420.31;;;17.40;100.00
3102;BME280;1561;42.666;23.392;2022-09-17T01:10:19;94359.22;;;17.11;100.00
3102;BME280;1561;42.666;23.392;2022-09-17T01:13:00;94420.66;;;17.22;100.00
3102;BME280;1561;42.666;23.392;2022-09-17T01:15:37;94316.72;;;16.72;100.00
3102;BME280;1561;42.666;23.392;2022-09-17T01:18:36;94368.66;;;17.04;100.00
3102;BME280;1561;42.666;23.392;2022-09-17T01:24:44;94348.41;;;17.01;100.00
3102;BME280;1561;42.666;23.392;2022-09-17T01:30:35;94386.19;;;17.09;100.00
3102;BME280;1561;42.666;23.392;2022-09-17T01:33:12;94409.63;;;17.28;100.00
3102;BME280;1561;42.666;23.392;2022-09-17T01:35:50;94381.94;;;17.22;100.00
3102;BME280;1561;42.666;23.392;2022-09-17T01:38:42;94405.59;;;17.40;100.00
3102;BME280;1561;42.666;23.392;2022-09-17T01:41:19;94388.81;;;17.51;100.00
3102;BME280;1561;42.666;23.392;2022-09-17T01:43:54;94378.16;;;17.39;100.00
3102;BME280;1561;42.666;23.392;2022-09-17T01:46:31;94372.75;;;17.34;100.00
3102;BME280;1561;42.666;23.392;2022-09-17T01:49:01;94369.19;;;17.56;100.00
3102;BME280;1561;42.666;23.392;2022-09-17T01:51:35;94334.03;;;17.13;100.00
3102;BME280;1561;42.666;23.392;2022-09-17T01:54:10;94316.75;;;17.35;100.00
3102;BME280;1561;42.666;23.392;2022-09-17T01:56:57;94316.09;;;17.47;100.00
3102;BME280;1561;42.666;23.392;2022-09-17T01:59:29;94349.94;;;17.59;100.00
3102;BME280;1561;42.666;23.392;2022-09-17T02:02:13;94342.81;;;17.61;100.00
3102;BME280;1561;42.666;23.392;2022-09-17T02:04:49;94288.97;;;17.37;100.00
3102;BME280;1561;42.666;23.392;2022-09-17T02:07:24;94361.56;;;17.69;100.00
3102;BME280;1561;42.666;23.392;2022-09-17T02:09:58;94336.47;;;17.63;100.00
3102;BME280;1561;42.666;23.392;2022-09-17T02:12:32;94255.53;;;17.29;100.00
3102;BME280;1561;42.666;23.392;2022-09-17T02:15:10;94313.81;;;17.17;100.00
3102;BME280;1561;42.666;23.392;2022-09-17T02:17:44;94310.84;;;17.20;100.00
3102;BME280;1561;42.666;23.392;2022-09-17T02:20:25;94307.53;;;17.26;100.00
3102;BME280;1561;42.666;23.392;2022-09-17T02:23:00;94263.97;;;17.16;100.00
3102;BME280;1561;42.666;23.392;2022-09-17T02:25:38;94261.63;;;17.21;100.00
3102;BME280;1561;42.666;23.392;2022-09-17T02:28:13;94241.69;;;17.09;100.00
3102;BME280;1561;42.666;23.392;2022-09-17T02:30:47;94284.13;;;17.27;100.00
3102;BME280;1561;42.666;23.392;2022-09-17T02:33:19;94197.81;;;17.36;100.00
3102;BME280;1561;42.666;23.392;2022-09-17T02:35:50;94215.94;;;18.24;100.00
3102;BME280;1561;42.666;23.392;2022-09-17T02:38:21;94196.13;;;17.84;100.00
3102;BME280;1561;42.666;23.392;2022-09-17T02:40:57;94216.44;;;18.00;100.00
3102;BME280;1561;42.666;23.392;2022-09-17T02:43:37;94240.59;;;17.79;100.00
3102;BME280;1561;42.666;23.392;2022-09-17T02:46:20;94271.66;;;17.92;100.00
3102;BME280;1561;42.666;23.392;2022-09-17T02:49:20;94216.16;;;17.82;100.00
3102;BME280;1561;42.666;23.392;2022-09-17T02:51:58;94237.16;;;17.66;100.00
3102;BME280;1561;42.666;23.392;2022-09-17T02:54:39;94264.44;;;17.47;100.00
3102;BME280;1561;42.666;23.392;2022-09-17T02:57:15;94261.13;;;17.32;100.00
3102;BME280;1561;42.666;23.392;2022-09-17T02:59:57;94267.34;;;17.65;100.00
3102;BME280;1561;42.666;23.392;2022-09-17T03:05:52;94230.28;;;17.45;100.00
3102;BME280;1561;42.666;23.392;2022-09-17T03:08:27;94224.38;;;17.58;100.00
3102;BME280;1561;42.666;23.392;2022-09-17T03:10:56;94233.69;;;17.52;100.00
3102;BME280;1561;42.666;23.392;2022-09-17T03:13:30;94239.00;;;17.44;100.00
3102;BME280;1561;42.666;23.392;2022-09-17T03:15:59;94227.28;;;17.48;100.00
3102;BME280;1561;42.666;23.392;2022-09-17T03:18:31;94229.50;;;17.51;100.00
3102;BME280;1561;42.666;23.392;2022-09-17T03:21:03;94236.84;;;17.48;100.00
3102;BME280;1561;42.666;23.392;2022-09-17T03:23:31;94227.47;;;17.47;100.00
3102;BME280;1561;42.666;23.392;2022-09-17T03:26:05;94225.59;;;17.34;100.00
3102;BME280;1561;42.666;23.392;2022-09-17T03:28:33;94216.44;;;17.59;100.00
3102;BME280;1561;42.666;23.392;2022-09-17T03:31:01;94232.41;;;17.69;100.00
3102;BME280;1561;42.666;23.392;2022-09-17T03:33:31;94215.53;;;17.73;100.00
3102;BME280;1561;42.666;23.392;2022-09-17T03:36:00;94186.75;;;17.76;100.00
3102;BME280;1561;42.666;23.392;2022-09-17T03:38:39;94217.16;;;17.81;100.00
3102;BME280;1561;42.666;23.392;2022-09-17T03:41:10;94195.53;;;17.88;100.00
3102;BME280;1561;42.666;23.392;2022-09-17T03:43:48;94194.19;;;18.52;100.00
3102;BME280;1561;42.666;23.392;2022-09-17T03:46:18;94186.44;;;18.59;100.00
3102;BME280;1561;42.666;23.392;2022-09-17T03:48:45;94159.75;;;18.65;100.00
3102;BME280;1561;42.666;23.392;2022-09-17T03:51:21;94157.59;;;18.62;100.00
3102;BME280;1561;42.666;23.392;2022-09-17T03:53:53;94167.72;;;18.57;100.00
3102;BME280;1561;42.666;23.392;2022-09-17T03:56:21;94182.22;;;18.38;100.00
3102;BME280;1561;42.666;23.392;2022-09-17T03:58:49;94173.06;;;18.36;100.00
3102;BME280;1561;42.666;23.392;2022-09-17T04:01:23;94188.78;;;18.34;100.00
3102;BME280;1561;42.666;23.392;2022-09-17T04:03:52;94141.13;;;18.09;100.00
3102;BME280;1561;42.666;23.392;2022-09-17T04:06:24;94205.88;;;18.42;100.00
3102;BME280;1561;42.666;23.392;2022-09-17T04:09:03;94228.34;;;18.35;100.00
3102;BME280;1561;42.666;23.392;2022-09-17T04:11:38;94205.09;;;18.41;100.00
3102;BME280;1561;42.666;23.392;2022-09-17T04:14:13;94220.53;;;18.28;100.00
3102;BME280;1561;42.666;23.392;2022-09-17T04:16:46;94215.66;;;18.40;100.00
3102;BME280;1561;42.666;23.392;2022-09-17T04:19:16;94219.34;;;18.24;100.00
3102;BME280;1561;42.666;23.392;2022-09-17T04:21:47;94239.91;;;18.45;100.00
3102;BME280;1561;42.666;23.392;2022-09-17T04:24:16;94258.66;;;18.54;100.00
3102;BME280;1561;42.666;23.392;2022-09-17T04:26:45;94272.59;;;18.66;100.00
3102;BME280;1561;42.666;23.392;2022-09-17T04:29:23;94272.16;;;18.49;100.00
3102;BME280;1561;42.666;23.392;2022-09-17T04:31:54;94303.00;;;18.51;100.00
3102;BME280;1561;42.666;23.392;2022-09-17T04:34:21;94290.66;;;18.46;100.00
3102;BME280;1561;42.666;23.392;2022-09-17T04:36:55;94319.91;;;18.53;100.00
3102;BME280;1561;42.666;23.392;2022-09-17T04:39:27;94307.66;;;18.75;100.00
3102;BME280;1561;42.666;23.392;2022-09-17T04:41:55;94330.88;;;18.49;100.00
3102;BME280;1561;42.666;23.392;2022-09-17T04:44:25;94325.34;;;18.24;100.00
3102;BME280;1561;42.666;23.392;2022-09-17T04:46:54;94284.63;;;17.65;100.00
3102;BME280;1561;42.666;23.392;2022-09-17T04:49:21;94335.84;;;17.89;100.00
3102;BME280;1561;42.666;23.392;2022-09-17T04:51:55;94370.63;;;17.86;100.00
3102;BME280;1561;42.666;23.392;2022-09-17T04:54:23;94374.94;;;17.79;100.00
3102;BME280;1561;42.666;23.392;2022-09-17T04:56:52;94376.88;;;17.98;100.00
3102;BME280;1561;42.666;23.392;2022-09-17T04:59:21;94378.38;;;18.14;100.00
3102;BME280;1561;42.666;23.392;2022-09-17T05:01:51;94382.00;;;17.92;100.00
3102;BME280;1561;42.666;23.392;2022-09-17T05:04:26;94393.22;;;18.05;100.00
3102;BME280;1561;42.666;23.392;2022-09-17T05:06:53;94383.19;;;17.89;100.00
3102;BME280;1561;42.666;23.392;2022-09-17T05:09:22;94393.00;;;18.00;100.00
3102;BME280;1561;42.666;23.392;2022-09-17T05:11:56;94387.09;;;18.13;100.00
3102;BME280;1561;42.666;23.392;2022-09-17T05:14:27;94380.56;;;18.17;100.00
3102;BME280;1561;42.666;23.392;2022-09-17T05:17:01;94369.09;;;18.26;100.00
3102;BME280;1561;42.666;23.392;2022-09-17T05:19:33;94364.81;;;18.39;100.00
3102;BME280;1561;42.666;23.392;2022-09-17T05:22:02;94364.81;;;18.39;100.00
3102;BME280;1561;42.666;23.392;2022-09-17T05:24:32;94338.09;;;18.32;100.00
3102;BME280;1561;42.666;23.392;2022-09-17T05:27:09;94336.16;;;18.34;100.00
3102;BME280;1561;42.666;23.392;2022-09-17T05:29:36;94327.34;;;18.29;100.00
3102;BME280;1561;42.666;23.392;2022-09-17T05:32:05;94215.16;;;17.21;100.00
3102;BME280;1561;42.666;23.392;2022-09-17T05:34:40;94342.13;;;17.73;100.00
3102;BME280;1561;42.666;23.392;2022-09-17T05:37:10;94332.03;;;17.57;100.00
3102;BME280;1561;42.666;23.392;2022-09-17T05:39:47;94354.97;;;17.67;100.00
3102;BME280;1561;42.666;23.392;2022-09-17T05:42:18;94375.13;;;17.78;100.00
3102;BME280;1561;42.666;23.392;2022-09-17T05:44:46;94381.97;;;17.85;100.00
3102;BME280;1561;42.666;23.392;2022-09-17T05:47:17;94369.53;;;18.02;100.00
3102;BME280;1561;42.666;23.392;2022-09-17T05:49:44;94319.00;;;17.65;100.00
3102;BME280;1561;42.666;23.392;2022-09-17T05:52:12;94308.00;;;17.84;100.00
3102;BME280;1561;42.666;23.392;2022-09-17T05:54:41;94370.69;;;18.27;100.00
3102;BME280;1561;42.666;23.392;2022-09-17T05:57:11;94367.19;;;18.34;100.00
3102;BME280;1561;42.666;23.392;2022-09-17T05:59:44;94362.03;;;18.34;100.00
3102;BME280;1561;42.666;23.392;2022-09-17T06:02:14;94358.72;;;18.53;100.00
3102;BME280;1561;42.666;23.392;2022-09-17T06:04:44;94320.19;;;18.31;100.00
3102;BME280;1561;42.666;23.392;2022-09-17T06:07:11;94344.19;;;18.18;100.00
3102;BME280;1561;42.666;23.392;2022-09-17T06:09:38;94360.50;;;18.19;100.00
3102;BME280;1561;42.666;23.392;2022-09-17T06:12:07;94350.69;;;18.08;100.00
3102;BME280;1561;42.666;23.392;2022-09-17T06:14:35;94364.59;;;18.07;100.00
3102;BME280;1561;42.666;23.392;2022-09-17T06:17:04;94383.72;;;18.12;100.00
3102;BME280;1561;42.666;23.392;2022-09-17T06:19:35;94364.16;;;17.97;100.00
3102;BME280;1561;42.666;23.392;2022-09-17T06:22:04;94397.16;;;18.01;100.00
3102;BME280;1561;42.666;23.392;2022-09-17T06:24:37;94425.41;;;18.03;100.00
3102;BME280;1561;42.666;23.392;2022-09-17T06:27:13;94420.44;;;18.01;100.00
3102;BME280;1561;42.666;23.392;2022-09-17T06:29:44;94428.09;;;18.16;100.00
3102;BME280;1561;42.666;23.392;2022-09-17T06:32:15;94437.97;;;18.06;100.00
3102;BME280;1561;42.666;23.392;2022-09-17T06:34:44;94441.97;;;18.08;100.00
3102;BME280;1561;42.666;23.392;2022-09-17T06:37:17;94416.44;;;17.99;100.00
3102;BME280;1561;42.666;23.392;2022-09-17T06:39:48;94455.81;;;18.28;100.00
3102;BME280;1561;42.666;23.392;2022-09-17T06:42:20;94455.19;;;18.47;100.00
3102;BME280;1561;42.666;23.392;2022-09-17T06:44:49;94445.00;;;18.39;100.00
3102;BME280;1561;42.666;23.392;2022-09-17T06:47:25;94441.09;;;18.29;100.00
3102;BME280;1561;42.666;23.392;2022-09-17T06:49:52;94425.22;;;18.32;100.00
3102;BME280;1561;42.666;23.392;2022-09-17T06:52:21;94410.16;;;18.35;100.00
3102;BME280;1561;42.666;23.392;2022-09-17T06:54:52;94415.03;;;18.51;100.00
3102;BME280;1561;42.666;23.392;2022-09-17T06:57:20;94409.53;;;18.67;100.00
3102;BME280;1561;42.666;23.392;2022-09-17T06:59:49;94411.00;;;18.83;100.00
3102;BME280;1561;42.666;23.392;2022-09-17T07:02:18;94404.19;;;18.75;100.00
3102;BME280;1561;42.666;23.392;2022-09-17T07:04:45;94388.97;;;19.06;100.00
3102;BME280;1561;42.666;23.392;2022-09-17T07:07:17;94391.97;;;18.56;100.00
3102;BME280;1561;42.666;23.392;2022-09-17T07:09:50;94360.66;;;18.38;100.00
3102;BME280;1561;42.666;23.392;2022-09-17T07:12:23;94377.03;;;19.05;100.00
3102;BME280;1561;42.666;23.392;2022-09-17T07:14:51;94368.56;;;19.57;100.00
3102;BME280;1561;42.666;23.392;2022-09-17T07:17:24;94346.66;;;19.79;100.00
3102;BME280;1561;42.666;23.392;2022-09-17T07:19:51;94330.03;;;20.38;100.00
3102;BME280;1561;42.666;23.392;2022-09-17T07:22:23;94296.06;;;22.37;100.00
3102;BME280;1561;42.666;23.392;2022-09-17T07:24:51;94291.31;;;23.30;100.00
3102;BME280;1561;42.666;23.392;2022-09-17T07:27:20;94292.28;;;24.16;100.00
3102;BME280;1561;42.666;23.392;2022-09-17T07:29:56;94309.69;;;23.99;100.00
3102;BME280;1561;42.666;23.392;2022-09-17T07:32:33;94314.41;;;22.78;100.00
3102;BME280;1561;42.666;23.392;2022-09-17T07:35:00;94302.28;;;24.07;100.00
3102;BME280;1561;42.666;23.392;2022-09-17T07:37:29;94266.41;;;24.37;100.00
3102;BME280;1561;42.666;23.392;2022-09-17T07:39:56;94243.34;;;24.34;100.00
3102;BME280;1561;42.666;23.392;2022-09-17T07:42:23;94290.97;;;25.65;100.00
3102;BME280;1561;42.666;23.392;2022-09-17T07:44:51;94281.94;;;25.89;100.00
3102;BME280;1561;42.666;23.392;2022-09-17T07:47:21;94216.84;;;24.54;100.00
3102;BME280;1561;42.666;23.392;2022-09-17T07:49:59;94280.59;;;24.07;100.00
3102;BME280;1561;42.666;23.392;2022-09-17T07:52:26;94294.00;;;26.44;100.00
3102;BME280;1561;42.666;23.392;2022-09-17T07:54:54;94297.75;;;25.94;100.00
3102;BME280;1561;42.666;23.392;2022-09-17T07:57:21;94231.50;;;24.04;100.00
3102;BME280;1561;42.666;23.392;2022-09-17T07:59:51;94277.22;;;23.95;100.00
3102;BME280;1561;42.666;23.392;2022-09-17T08:02:20;94282.06;;;23.68;100.00
3102;BME280;1561;42.666;23.392;2022-09-17T08:04:51;94277.56;;;23.23;100.00
3102;BME280;1561;42.666;23.392;2022-09-17T08:07:20;94282.72;;;23.11;100.00
3102;BME280;1561;42.666;23.392;2022-09-17T08:09:47;94287.03;;;22.87;100.00
3102;BME280;1561;42.666;23.392;2022-09-17T08:12:16;94285.66;;;22.19;100.00
3102;BME280;1561;42.666;23.392;2022-09-17T08:14:44;94267.16;;;22.45;100.00
3102;BME280;1561;42.666;23.392;2022-09-17T08:17:12;94264.13;;;22.48;100.00
3102;BME280;1561;42.666;23.392;2022-09-17T08:19:39;94260.84;;;22.35;100.00
3102;BME280;1561;42.666;23.392;2022-09-17T08:22:09;94260.97;;;23.05;100.00
3102;BME280;1561;42.666;23.392;2022-09-17T08:24:38;94257.44;;;23.64;100.00
3102;BME280;1561;42.666;23.392;2022-09-17T08:27:07;94259.50;;;23.51;100.00
3102;BME280;1561;42.666;23.392;2022-09-17T08:29:34;94257.66;;;23.63;100.00
3102;BME280;1561;42.666;23.392;2022-09-17T08:32:04;94252.94;;;23.94;100.00
3102;BME280;1561;42.666;23.392;2022-09-17T08:34:33;94248.53;;;23.95;100.00
3102;BME280;1561;42.666;23.392;2022-09-17T08:37:02;94256.56;;;23.59;100.00
3102;BME280;1561;42.666;23.392;2022-09-17T08:39:39;94262.03;;;23.92;100.00
3102;BME280;1561;42.666;23.392;2022-09-17T08:42:14;94247.81;;;23.88;100.00
3102;BME280;1561;42.666;23.392;2022-09-17T08:44:47;94249.50;;;23.48;100.00
3102;BME280;1561;42.666;23.392;2022-09-17T08:47:19;94252.72;;;23.73;100.00
3102;BME280;1561;42.666;23.392;2022-09-17T08:49:57;94243.50;;;23.47;100.00
3102;BME280;1561;42.666;23.392;2022-09-17T08:53:00;94245.81;;;23.14;100.00
3102;BME280;1561;42.666;23.392;2022-09-17T08:55:36;94238.50;;;23.04;100.00
3102;BME280;1561;42.666;23.392;2022-09-17T09:01:18;94255.44;;;22.54;100.00
3102;BME280;1561;42.666;23.392;2022-09-17T09:04:18;94248.94;;;22.27;100.00
3102;BME280;1561;42.666;23.392;2022-09-17T09:06:54;94123.78;;;21.27;100.00
3102;BME280;1561;42.666;23.392;2022-09-17T09:12:31;94260.19;;;21.85;100.00
3102;BME280;1561;42.666;23.392;2022-09-17T09:15:01;94271.59;;;21.84;100.00
3102;BME280;1561;42.666;23.392;2022-09-17T09:17:43;94285.00;;;21.57;100.00
3102;BME280;1561;42.666;23.392;2022-09-17T09:20:18;94272.03;;;21.32;100.00
3102;BME280;1561;42.666;23.392;2022-09-17T09:22:49;94266.38;;;21.11;100.00
3102;BME280;1561;42.666;23.392;2022-09-17T09:25:21;94294.47;;;20.96;100.00
3102;BME280;1561;42.666;23.392;2022-09-17T09:28:05;94292.69;;;21.21;100.00
3102;BME280;1561;42.666;23.392;2022-09-17T09:31:04;94298.66;;;21.28;100.00
3102;BME280;1561;42.666;23.392;2022-09-17T09:33:39;94323.38;;;21.06;100.00
3102;BME280;1561;42.666;23.392;2022-09-17T09:36:10;94212.31;;;20.26;100.00
3102;BME280;1561;42.666;23.392;2022-09-17T09:38:52;94325.03;;;20.87;100.00
3102;BME280;1561;42.666;23.392;2022-09-17T09:41:29;94333.41;;;20.45;100.00
3102;BME280;1561;42.666;23.392;2022-09-17T09:44:03;94342.97;;;20.45;100.00
3102;BME280;1561;42.666;23.392;2022-09-17T09:46:59;94346.41;;;20.32;100.00
3102;BME280;1561;42.666;23.392;2022-09-17T09:49:56;94356.00;;;20.19;100.00
3102;BME280;1561;42.666;23.392;2022-09-17T09:52:45;94352.41;;;20.26;100.00
3102;BME280;1561;42.666;23.392;2022-09-17T09:55:30;94356.81;;;20.13;100.00
3102;BME280;1561;42.666;23.392;2022-09-17T09:58:20;94382.16;;;20.11;100.00
3102;BME280;1561;42.666;23.392;2022-09-17T10:01:24;94386.91;;;20.01;100.00
3102;BME280;1561;42.666;23.392;2022-09-17T10:03:53;94389.50;;;19.68;100.00
3102;BME280;1561;42.666;23.392;2022-09-17T10:06:28;94363.00;;;19.53;100.00
3102;BME280;1561;42.666;23.392;2022-09-17T10:09:11;94353.13;;;19.10;100.00
3102;BME280;1561;42.666;23.392;2022-09-17T10:11:43;94346.50;;;18.88;100.00
3102;BME280;1561;42.666;23.392;2022-09-17T10:14:27;94299.50;;;18.84;100.00
3102;BME280;1561;42.666;23.392;2022-09-17T10:17:24;94281.75;;;18.55;100.00
3102;BME280;1561;42.666;23.392;2022-09-17T10:20:14;94294.09;;;18.66;100.00
3102;BME280;1561;42.666;23.392;2022-09-17T10:22:46;94265.44;;;18.68;100.00
3102;BME280;1561;42.666;23.392;2022-09-17T10:25:27;94269.03;;;18.67;100.00
3102;BME280;1561;42.666;23.392;2022-09-17T10:28:00;94263.25;;;18.65;100.00
3102;BME280;1561;42.666;23.392;2022-09-17T10:30:37;94267.19;;;18.54;100.00
3102;BME280;1561;42.666;23.392;2022-09-17T10:33:18;94252.28;;;18.50;100.00
3102;BME280;1561;42.666;23.392;2022-09-17T10:36:00;94264.44;;;18.62;100.00
3102;BME280;1561;42.666;23.392;2022-09-17T10:38:42;94069.66;;;17.29;100.00
3102;BME280;1561;42.666;23.392;2022-09-17T10:41:17;94264.81;;;18.59;100.00
3102;BME280;1561;42.666;23.392;2022-09-17T10:43:48;94261.88;;;18.69;100.00
3102;BME280;1561;42.666;23.392;2022-09-17T10:46:19;94247.16;;;18.69;100.00
3102;BME280;1561;42.666;23.392;2022-09-17T10:48:57;94217.06;;;18.75;100.00
3102;BME280;1561;42.666;23.392;2022-09-17T10:51:37;94203.94;;;18.70;100.00
3102;BME280;1561;42.666;23.392;2022-09-17T10:54:55;94201.53;;;18.68;100.00
3102;BME280;1561;42.666;23.392;2022-09-17T10:57:41;94206.97;;;18.93;100.00
3102;BME280;1561;42.666;23.392;2022-09-17T11:00:16;94162.16;;;19.18;100.00
3102;BME280;1561;42.666;23.392;2022-09-17T11:06:08;94134.69;;;19.87;100.00
3102;BME280;1561;42.666;23.392;2022-09-17T11:08:48;94160.13;;;20.16;100.00
3102;BME280;1561;42.666;23.392;2022-09-17T11:11:31;94188.94;;;20.33;100.00
3102;BME280;1561;42.666;23.392;2022-09-17T11:14:14;94157.53;;;20.47;100.00
3102;BME280;1561;42.666;23.392;2022-09-17T11:16:57;94199.28;;;20.77;100.00
3102;BME280;1561;42.666;23.392;2022-09-17T11:19:38;94182.47;;;21.10;100.00
3102;BME280;1561;42.666;23.392;2022-09-17T11:22:18;94191.22;;;21.58;100.00
3102;BME280;1561;42.666;23.392;2022-09-17T11:25:16;94187.84;;;22.30;100.00
3102;BME280;1561;42.666;23.392;2022-09-17T11:28:03;94178.25;;;22.48;100.00
3102;BME280;1561;42.666;23.392;2022-09-17T11:30:46;94188.50;;;22.25;100.00
3102;BME280;1561;42.666;23.392;2022-09-17T11:33:38;94213.41;;;21.61;100.00
3102;BME280;1561;42.666;23.392;2022-09-17T11:36:12;94224.97;;;20.91;100.00
3102;BME280;1561;42.666;23.392;2022-09-17T11:38:47;94218.78;;;20.86;100.00
3102;BME280;1561;42.666;23.392;2022-09-17T11:41:19;94217.97;;;20.61;100.00
3102;BME280;1561;42.666;23.392;2022-09-17T11:44:01;94230.22;;;20.78;100.00
3102;BME280;1561;42.666;23.392;2022-09-17T11:46:37;94235.53;;;20.90;100.00
3102;BME280;1561;42.666;23.392;2022-09-17T11:49:14;94231.59;;;20.81;100.00
3102;BME280;1561;42.666;23.392;2022-09-17T11:51:48;94212.41;;;20.82;100.00
3102;BME280;1561;42.666;23.392;2022-09-17T11:54:23;94220.69;;;20.72;100.00
3102;BME280;1561;42.666;23.392;2022-09-17T11:57:02;94204.00;;;20.86;100.00
3102;BME280;1561;42.666;23.392;2022-09-17T11:59:34;94193.78;;;20.98;100.00
3102;BME280;1561;42.666;23.392;2022-09-17T12:02:15;94197.38;;;20.97;100.00
3102;BME280;1561;42.666;23.392;2022-09-17T12:04:46;94178.81;;;20.87;100.00
3102;BME280;1561;42.666;23.392;2022-09-17T12:07:27;94167.38;;;20.70;100.00
3102;BME280;1561;42.666;23.392;2022-09-17T12:10:17;94178.91;;;20.80;100.00
3102;BME280;1561;42.666;23.392;2022-09-17T12:12:51;94183.53;;;20.72;100.00
3102;BME280;1561;42.666;23.392;2022-09-17T12:15:23;94180.31;;;20.45;100.00
3102;BME280;1561;42.666;23.392;2022-09-17T12:17:56;94189.81;;;20.58;100.00
3102;BME280;1561;42.666;23.392;2022-09-17T12:20:36;94201.34;;;20.68;100.00
3102;BME280;1561;42.666;23.392;2022-09-17T12:23:14;94144.28;;;20.31;100.00
3102;BME280;1561;42.666;23.392;2022-09-17T12:25:54;94197.22;;;20.54;100.00
3102;BME280;1561;42.666;23.392;2022-09-17T12:28:29;94195.78;;;20.27;100.00
3102;BME280;1561;42.666;23.392;2022-09-17T12:31:04;94185.25;;;20.16;100.00
3102;BME280;1561;42.666;23.392;2022-09-17T12:33:38;94184.09;;;20.12;100.00
3102;BME280;1561;42.666;23.392;2022-09-17T12:36:27;94180.88;;;20.10;100.00
3102;BME280;1561;42.666;23.392;2022-09-17T12:42:47;94179.84;;;20.17;100.00
3102;BME280;1561;42.666;23.392;2022-09-17T12:45:35;94169.91;;;20.14;100.00
3102;BME280;1561;42.666;23.392;2022-09-17T12:48:26;94176.22;;;20.25;100.00
3102;BME280;1561;42.666;23.392;2022-09-17T12:51:06;94173.28;;;20.15;100.00
3102;BME280;1561;42.666;23.392;2022-09-17T12:53:42;94169.78;;;19.90;100.00
3102;BME280;1561;42.666;23.392;2022-09-17T12:56:23;94182.81;;;19.64;100.00
3102;BME280;1561;42.666;23.392;2022-09-17T12:59:07;94170.34;;;19.28;100.00
3102;BME280;1561;42.666;23.392;2022-09-17T13:01:41;94168.94;;;19.26;100.00
3102;BME280;1561;42.666;23.392;2022-09-17T13:04:30;94166.94;;;19.28;100.00
3102;BME280;1561;42.666;23.392;2022-09-17T13:10:27;94149.59;;;19.22;100.00
3102;BME280;1561;42.666;23.392;2022-09-17T13:13:09;94153.97;;;19.28;100.00
3102;BME280;1561;42.666;23.392;2022-09-17T13:15:57;94153.00;;;19.42;100.00
3102;BME280;1561;42.666;23.392;2022-09-17T13:18:30;94153.00;;;19.35;100.00
3102;BME280;1561;42.666;23.392;2022-09-17T13:21:05;94169.72;;;19.20;100.00
3102;BME280;1561;42.666;23.392;2022-09-17T13:23:39;94153.22;;;19.27;100.00
3102;BME280;1561;42.666;23.392;2022-09-17T13:26:10;94146.81;;;19.30;100.00
3102;BME280;1561;42.666;23.392;2022-09-17T13:28:48;94140.44;;;19.32;100.00
3102;BME280;1561;42.666;23.392;2022-09-17T13:31:45;94132.28;;;19.29;100.00
3102;BME280;1561;42.666;23.392;2022-09-17T13:34:27;94136.88;;;19.27;100.00
3102;BME280;1561;42.666;23.392;2022-09-17T13:36:56;94115.94;;;19.22;100.00
3102;BME280;1561;42.666;23.392;2022-09-17T13:39:42;94115.69;;;19.49;100.00
3102;BME280;1561;42.666;23.392;2022-09-17T13:42:16;94093.44;;;19.35;100.00
3102;BME280;1561;42.666;23.392;2022-09-17T13:44:48;94068.94;;;19.18;100.00
3102;BME280;1561;42.666;23.392;2022-09-17T13:47:33;94026.22;;;18.83;100.00
3102;BME280;1561;42.666;23.392;2022-09-17T13:50:10;94086.47;;;19.29;100.00
3102;BME280;1561;42.666;23.392;2022-09-17T13:52:43;94076.91;;;19.30;100.00
3102;BME280;1561;42.666;23.392;2022-09-17T13:55:32;94048.44;;;19.17;100.00
3102;BME280;1561;42.666;23.392;2022-09-17T13:58:02;94046.03;;;19.22;100.00
3102;BME280;1561;42.666;23.392;2022-09-17T14:00:54;94035.69;;;19.15;100.00
3102;BME280;1561;42.666;23.392;2022-09-17T14:03:52;94018.31;;;19.35;100.00
3102;BME280;1561;42.666;23.392;2022-09-17T14:06:48;94013.44;;;19.58;100.00
3102;BME280;1561;42.666;23.392;2022-09-17T14:09:38;94011.59;;;19.65;100.00